sensor_id;sensor_type;location;lat;lon;timestamp;temperature;humidity
43842;DHT22;29495;49.970;20.842;2023-04-01T00:00:16;10.20;99.90
43842;DHT22;29495;49.970;20.842;2023-04-01T00:02:42;10.20;99.90
43842;DHT22;29495;49.970;20.842;2023-04-01T00:05:08;10.10;99.90
43842;DHT22;29495;49.970;20.842;2023-04-01T00:07:36;10.10;99.90
43842;DHT22;29495;49.970;20.842;2023-04-01T00:10:03;10.10;99.90
43842;DHT22;29495;49.970;20.842;2023-04-01T00:12:28;10.00;99.90
43842;DHT22;29495;49.970;20.842;2023-04-01T00:14:55;10.10;99.90
43842;DHT22;29495;49.970;20.842;2023-04-01T00:17:21;10.00;99.90
43842;DHT22;29495;49.970;20.842;2023-04-01T00:19:46;10.00;99.90
43842;DHT22;29495;49.970;20.842;2023-04-01T00:22:12;9.90;99.90
43842;DHT22;29495;49.970;20.842;2023-04-01T00:24:38;9.90;99.90
43842;DHT22;29495;49.970;20.842;2023-04-01T00:27:04;10.00;99.90
43842;DHT22;29495;49.970;20.842;2023-04-01T00:29:30;9.90;99.90
43842;DHT22;29495;49.970;20.842;2023-04-01T00:31:57;9.90;99.90
43842;DHT22;29495;49.970;20.842;2023-04-01T00:34:23;9.80;99.90
43842;DHT22;29495;49.970;20.842;2023-04-01T00:36:49;9.70;99.90
43842;DHT22;29495;49.970;20.842;2023-04-01T00:39:16;9.70;99.90
43842;DHT22;29495;49.970;20.842;2023-04-01T00:41:42;9.60;99.90
43842;DHT22;29495;49.970;20.842;2023-04-01T00:44:15;9.50;99.90
43842;DHT22;29495;49.970;20.842;2023-04-01T00:46:41;9.60;99.90
43842;DHT22;29495;49.970;20.842;2023-04-01T00:49:06;9.70;99.90
43842;DHT22;29495;49.970;20.842;2023-04-01T00:51:32;9.70;99.90
43842;DHT22;29495;49.970;20.842;2023-04-01T00:54:01;9.70;99.90
43842;DHT22;29495;49.970;20.842;2023-04-01T00:56:46;9.80;99.90
43842;DHT22;29495;49.970;20.842;2023-04-01T00:59:29;9.90;99.90
43842;DHT22;29495;49.970;20.842;2023-04-01T01:01:55;9.90;99.90
43842;DHT22;29495;49.970;20.842;2023-04-01T01:04:28;9.90;99.90
43842;DHT22;29495;49.970;20.842;2023-04-01T01:09:57;9.90;99.90
43842;DHT22;29495;49.970;20.842;2023-04-01T01:15:08;10.00;99.90
43842;DHT22;29495;49.970;20.842;2023-04-01T01:22:43;10.10;99.90
43842;DHT22;29495;49.970;20.842;2023-04-01T01:25:22;10.10;99.90
43842;DHT22;29495;49.970;20.842;2023-04-01T01:27:56;10.20;99.90
43842;DHT22;29495;49.970;20.842;2023-04-01T01:33:02;10.20;99.90
43842;DHT22;29495;49.970;20.842;2023-04-01T01:35:38;10.20;99.90
43842;DHT22;29495;49.970;20.842;2023-04-01T01:38:14;10.20;99.90
43842;DHT22;29495;49.970;20.842;2023-04-01T01:40:44;10.10;99.90
43842;DHT22;29495;49.970;20.842;2023-04-01T01:43:12;10.20;99.90
43842;DHT22;29495;49.970;20.842;2023-04-01T01:45:40;10.20;99.90
43842;DHT22;29495;49.970;20.842;2023-04-01T01:48:08;10.20;99.90
43842;DHT22;29495;49.970;20.842;2023-04-01T01:50:35;10.20;99.90
43842;DHT22;29495;49.970;20.842;2023-04-01T01:53:06;10.10;99.90
43842;DHT22;29495;49.970;20.842;2023-04-01T01:55:36;10.10;99.90
43842;DHT22;29495;49.970;20.842;2023-04-01T01:58:05;10.10;99.90
43842;DHT22;29495;49.970;20.842;2023-04-01T02:00:33;10.10;99.90
43842;DHT22;29495;49.970;20.842;2023-04-01T02:03:00;10.10;99.90
43842;DHT22;29495;49.970;20.842;2023-04-01T02:05:26;10.10;99.90
43842;DHT22;29495;49.970;20.842;2023-04-01T02:08:01;10.10;99.90
43842;DHT22;29495;49.970;20.842;2023-04-01T02:10:28;10.10;99.90
43842;DHT22;29495;49.970;20.842;2023-04-01T02:12:58;10.10;99.90
43842;DHT22;29495;49.970;20.842;2023-04-01T02:15:25;10.00;99.90
43842;DHT22;29495;49.970;20.842;2023-04-01T02:17:52;10.10;99.90
43842;DHT22;29495;49.970;20.842;2023-04-01T02:20:20;10.10;99.90
43842;DHT22;29495;49.970;20.842;2023-04-01T02:22:49;10.10;99.90
43842;DHT22;29495;49.970;20.842;2023-04-01T02:25:16;10.10;99.90
43842;DHT22;29495;49.970;20.842;2023-04-01T02:27:43;10.10;99.90
43842;DHT22;29495;49.970;20.842;2023-04-01T02:30:10;10.10;99.90
43842;DHT22;29495;49.970;20.842;2023-04-01T02:32:37;10.00;99.90
43842;DHT22;29495;49.970;20.842;2023-04-01T02:35:10;10.10;99.90
43842;DHT22;29495;49.970;20.842;2023-04-01T02:37:37;10.10;99.90
43842;DHT22;29495;49.970;20.842;2023-04-01T02:40:04;10.10;99.90
43842;DHT22;29495;49.970;20.842;2023-04-01T02:42:32;10.10;99.90
43842;DHT22;29495;49.970;20.842;2023-04-01T02:44:58;10.10;99.90
43842;DHT22;29495;49.970;20.842;2023-04-01T02:47:23;10.00;99.90
43842;DHT22;29495;49.970;20.842;2023-04-01T02:49:49;10.10;99.90
43842;DHT22;29495;49.970;20.842;2023-04-01T02:52:15;10.00;99.90
43842;DHT22;29495;49.970;20.842;2023-04-01T02:54:41;10.00;99.90
43842;DHT22;29495;49.970;20.842;2023-04-01T02:57:07;10.10;99.90
43842;DHT22;29495;49.970;20.842;2023-04-01T02:59:32;10.10;99.90
43842;DHT22;29495;49.970;20.842;2023-04-01T03:01:58;10.10;99.90
43842;DHT22;29495;49.970;20.842;2023-04-01T03:04:24;10.10;99.90
43842;DHT22;29495;49.970;20.842;2023-04-01T03:06:50;10.10;99.90
43842;DHT22;29495;49.970;20.842;2023-04-01T03:09:16;10.10;99.90
43842;DHT22;29495;49.970;20.842;2023-04-01T03:11:42;10.00;99.90
43842;DHT22;29495;49.970;20.842;2023-04-01T03:14:08;10.10;99.90
43842;DHT22;29495;49.970;20.842;2023-04-01T03:16:34;10.10;99.90
43842;DHT22;29495;49.970;20.842;2023-04-01T03:19:00;10.00;99.90
43842;DHT22;29495;49.970;20.842;2023-04-01T03:21:28;10.00;99.90
43842;DHT22;29495;49.970;20.842;2023-04-01T03:23:53;10.00;99.90
43842;DHT22;29495;49.970;20.842;2023-04-01T03:26:19;10.00;99.90
43842;DHT22;29495;49.970;20.842;2023-04-01T03:28:47;10.10;99.90
43842;DHT22;29495;49.970;20.842;2023-04-01T03:31:12;10.00;99.90
43842;DHT22;29495;49.970;20.842;2023-04-01T03:33:46;10.10;99.90
43842;DHT22;29495;49.970;20.842;2023-04-01T03:36:12;10.10;99.90
43842;DHT22;29495;49.970;20.842;2023-04-01T03:38:39;10.00;99.90
43842;DHT22;29495;49.970;20.842;2023-04-01T03:41:05;10.10;99.90
43842;DHT22;29495;49.970;20.842;2023-04-01T03:43:32;10.10;99.90
43842;DHT22;29495;49.970;20.842;2023-04-01T03:45:58;10.10;99.90
43842;DHT22;29495;49.970;20.842;2023-04-01T03:48:24;10.10;99.90
43842;DHT22;29495;49.970;20.842;2023-04-01T03:50:50;9.90;99.90
43842;DHT22;29495;49.970;20.842;2023-04-01T03:53:17;9.90;99.90
43842;DHT22;29495;49.970;20.842;2023-04-01T03:55:44;9.90;99.90
43842;DHT22;29495;49.970;20.842;2023-04-01T03:58:10;9.90;99.90
43842;DHT22;29495;49.970;20.842;2023-04-01T04:00:36;9.90;99.90
43842;DHT22;29495;49.970;20.842;2023-04-01T04:03:02;9.90;99.90
43842;DHT22;29495;49.970;20.842;2023-04-01T04:05:34;9.80;99.90
43842;DHT22;29495;49.970;20.842;2023-04-01T04:08:00;9.80;99.90
43842;DHT22;29495;49.970;20.842;2023-04-01T04:10:26;9.80;99.90
43842;DHT22;29495;49.970;20.842;2023-04-01T04:12:52;9.90;99.90
43842;DHT22;29495;49.970;20.842;2023-04-01T04:15:20;9.90;99.90
43842;DHT22;29495;49.970;20.842;2023-04-01T04:17:46;9.80;99.90
43842;DHT22;29495;49.970;20.842;2023-04-01T04:20:14;9.80;99.90
43842;DHT22;29495;49.970;20.842;2023-04-01T04:22:39;9.80;99.90
43842;DHT22;29495;49.970;20.842;2023-04-01T04:25:07;9.80;99.90
43842;DHT22;29495;49.970;20.842;2023-04-01T04:27:33;9.80;99.90
43842;DHT22;29495;49.970;20.842;2023-04-01T04:30:08;9.80;99.90
43842;DHT22;29495;49.970;20.842;2023-04-01T04:32:35;9.80;99.90
43842;DHT22;29495;49.970;20.842;2023-04-01T04:35:01;9.80;99.90
43842;DHT22;29495;49.970;20.842;2023-04-01T04:37:27;9.80;99.90
43842;DHT22;29495;49.970;20.842;2023-04-01T04:39:53;9.80;99.90
43842;DHT22;29495;49.970;20.842;2023-04-01T04:42:19;9.80;99.90
43842;DHT22;29495;49.970;20.842;2023-04-01T04:44:45;9.90;99.90
43842;DHT22;29495;49.970;20.842;2023-04-01T04:47:11;9.90;99.90
43842;DHT22;29495;49.970;20.842;2023-04-01T04:49:37;9.90;99.90
43842;DHT22;29495;49.970;20.842;2023-04-01T04:52:07;10.00;99.90
43842;DHT22;29495;49.970;20.842;2023-04-01T04:54:33;10.00;99.90
43842;DHT22;29495;49.970;20.842;2023-04-01T04:57:00;10.00;99.90
43842;DHT22;29495;49.970;20.842;2023-04-01T04:59:31;10.10;99.90
43842;DHT22;29495;49.970;20.842;2023-04-01T05:02:23;10.20;99.90
43842;DHT22;29495;49.970;20.842;2023-04-01T05:04:49;10.30;99.90
43842;DHT22;29495;49.970;20.842;2023-04-01T05:07:15;10.30;99.90
43842;DHT22;29495;49.970;20.842;2023-04-01T05:09:41;10.30;99.90
43842;DHT22;29495;49.970;20.842;2023-04-01T05:12:07;10.30;99.90
43842;DHT22;29495;49.970;20.842;2023-04-01T05:14:53;10.40;99.90
43842;DHT22;29495;49.970;20.842;2023-04-01T05:17:19;10.40;99.90
43842;DHT22;29495;49.970;20.842;2023-04-01T05:19:45;10.50;99.90
43842;DHT22;29495;49.970;20.842;2023-04-01T05:22:11;10.50;99.90
43842;DHT22;29495;49.970;20.842;2023-04-01T05:24:37;10.50;99.90
43842;DHT22;29495;49.970;20.842;2023-04-01T05:27:03;10.60;99.90
43842;DHT22;29495;49.970;20.842;2023-04-01T05:29:29;10.70;99.90
43842;DHT22;29495;49.970;20.842;2023-04-01T05:32:02;10.90;99.90
43842;DHT22;29495;49.970;20.842;2023-04-01T05:34:28;11.00;99.90
43842;DHT22;29495;49.970;20.842;2023-04-01T05:36:54;11.20;99.90
43842;DHT22;29495;49.970;20.842;2023-04-01T05:39:19;11.30;99.90
43842;DHT22;29495;49.970;20.842;2023-04-01T05:41:46;11.70;99.90
43842;DHT22;29495;49.970;20.842;2023-04-01T05:44:12;11.80;99.90
43842;DHT22;29495;49.970;20.842;2023-04-01T05:46:38;12.00;99.90
43842;DHT22;29495;49.970;20.842;2023-04-01T05:49:24;12.30;99.90
43842;DHT22;29495;49.970;20.842;2023-04-01T05:51:51;12.50;99.90
43842;DHT22;29495;49.970;20.842;2023-04-01T05:54:18;12.40;99.90
43842;DHT22;29495;49.970;20.842;2023-04-01T05:56:44;12.50;99.90
43842;DHT22;29495;49.970;20.842;2023-04-01T05:59:11;12.40;99.90
43842;DHT22;29495;49.970;20.842;2023-04-01T06:01:37;12.50;99.90
43842;DHT22;29495;49.970;20.842;2023-04-01T06:04:03;12.60;99.90
43842;DHT22;29495;49.970;20.842;2023-04-01T06:06:30;12.80;99.90
43842;DHT22;29495;49.970;20.842;2023-04-01T06:09:07;12.50;99.90
43842;DHT22;29495;49.970;20.842;2023-04-01T06:11:38;12.50;99.90
43842;DHT22;29495;49.970;20.842;2023-04-01T06:14:20;12.40;99.90
43842;DHT22;29495;49.970;20.842;2023-04-01T06:19:47;12.60;99.90
43842;DHT22;29495;49.970;20.842;2023-04-01T06:30:07;12.40;99.90
43842;DHT22;29495;49.970;20.842;2023-04-01T06:46:21;12.60;99.90
43842;DHT22;29495;49.970;20.842;2023-04-01T06:54:55;13.00;99.90
43842;DHT22;29495;49.970;20.842;2023-04-01T06:57:43;12.80;99.90
43842;DHT22;29495;49.970;20.842;2023-04-01T07:00:14;12.70;99.90
43842;DHT22;29495;49.970;20.842;2023-04-01T07:02:42;12.90;99.90
43842;DHT22;29495;49.970;20.842;2023-04-01T07:05:10;12.90;99.90
43842;DHT22;29495;49.970;20.842;2023-04-01T07:07:47;13.10;99.90
43842;DHT22;29495;49.970;20.842;2023-04-01T07:10:20;12.80;99.90
43842;DHT22;29495;49.970;20.842;2023-04-01T07:13:10;12.70;99.90
43842;DHT22;29495;49.970;20.842;2023-04-01T07:18:32;12.90;99.90
43842;DHT22;29495;49.970;20.842;2023-04-01T07:21:00;12.90;99.90
43842;DHT22;29495;49.970;20.842;2023-04-01T07:23:32;12.80;99.90
43842;DHT22;29495;49.970;20.842;2023-04-01T07:26:21;13.10;99.90
43842;DHT22;29495;49.970;20.842;2023-04-01T07:29:08;13.70;99.90
43842;DHT22;29495;49.970;20.842;2023-04-01T07:34:12;13.90;99.90
43842;DHT22;29495;49.970;20.842;2023-04-01T07:36:53;13.90;99.90
43842;DHT22;29495;49.970;20.842;2023-04-01T07:39:24;14.20;99.90
43842;DHT22;29495;49.970;20.842;2023-04-01T07:47:14;13.80;99.90
43842;DHT22;29495;49.970;20.842;2023-04-01T07:52:32;14.30;99.90
43842;DHT22;29495;49.970;20.842;2023-04-01T08:00:39;14.20;99.60
43842;DHT22;29495;49.970;20.842;2023-04-01T08:08:19;13.80;99.90
43842;DHT22;29495;49.970;20.842;2023-04-01T08:11:14;13.90;99.90
43842;DHT22;29495;49.970;20.842;2023-04-01T08:17:02;14.20;99.90
43842;DHT22;29495;49.970;20.842;2023-04-01T08:22:27;14.50;99.90
43842;DHT22;29495;49.970;20.842;2023-04-01T08:24:58;14.70;99.90
43842;DHT22;29495;49.970;20.842;2023-04-01T08:27:34;14.60;99.30
43842;DHT22;29495;49.970;20.842;2023-04-01T08:30:23;14.40;99.70
43842;DHT22;29495;49.970;20.842;2023-04-01T08:33:10;14.40;99.20
43842;DHT22;29495;49.970;20.842;2023-04-01T08:38:04;14.30;99.90
43842;DHT22;29495;49.970;20.842;2023-04-01T08:40:39;14.50;99.90
43842;DHT22;29495;49.970;20.842;2023-04-01T08:43:17;14.60;99.90
43842;DHT22;29495;49.970;20.842;2023-04-01T08:56:26;15.60;98.00
43842;DHT22;29495;49.970;20.842;2023-04-01T09:06:32;15.70;96.00
43842;DHT22;29495;49.970;20.842;2023-04-01T09:11:28;15.90;95.20
43842;DHT22;29495;49.970;20.842;2023-04-01T09:17:17;15.30;95.10
43842;DHT22;29495;49.970;20.842;2023-04-01T09:33:07;14.20;95.70
43842;DHT22;29495;49.970;20.842;2023-04-01T09:35:42;14.00;96.00
43842;DHT22;29495;49.970;20.842;2023-04-01T09:53:59;14.30;98.30
43842;DHT22;29495;49.970;20.842;2023-04-01T10:01:45;14.50;98.20
43842;DHT22;29495;49.970;20.842;2023-04-01T10:19:59;15.00;98.80
43842;DHT22;29495;49.970;20.842;2023-04-01T10:25:24;14.90;95.90
43842;DHT22;29495;49.970;20.842;2023-04-01T10:31:27;14.70;96.50
43842;DHT22;29495;49.970;20.842;2023-04-01T10:33:58;14.90;96.40
43842;DHT22;29495;49.970;20.842;2023-04-01T10:47:47;14.50;98.10
43842;DHT22;29495;49.970;20.842;2023-04-01T10:53:24;14.40;97.50
43842;DHT22;29495;49.970;20.842;2023-04-01T11:14:06;14.40;97.80
43842;DHT22;29495;49.970;20.842;2023-04-01T11:43:57;14.40;95.40
43842;DHT22;29495;49.970;20.842;2023-04-01T12:07:48;15.00;96.40
43842;DHT22;29495;49.970;20.842;2023-04-01T12:12:58;15.00;95.80
43842;DHT22;29495;49.970;20.842;2023-04-01T12:18:05;15.20;95.90
43842;DHT22;29495;49.970;20.842;2023-04-01T12:20:37;15.30;95.50
43842;DHT22;29495;49.970;20.842;2023-04-01T15:03:30;13.40;98.70
43842;DHT22;29495;49.970;20.842;2023-04-01T15:08:29;13.40;98.80
43842;DHT22;29495;49.970;20.842;2023-04-01T15:27:58;13.90;99.40
43842;DHT22;29495;49.970;20.842;2023-04-01T15:34:24;13.60;99.80
43842;DHT22;29495;49.970;20.842;2023-04-01T15:36:55;13.60;99.90
43842;DHT22;29495;49.970;20.842;2023-04-01T16:00:46;13.40;99.90
43842;DHT22;29495;49.970;20.842;2023-04-01T16:44:46;11.70;99.90
43842;DHT22;29495;49.970;20.842;2023-04-01T16:47:38;11.30;99.90
43842;DHT22;29495;49.970;20.842;2023-04-01T16:50:21;11.30;99.90
43842;DHT22;29495;49.970;20.842;2023-04-01T16:56:29;11.20;99.90
43842;DHT22;29495;49.970;20.842;2023-04-01T16:59:17;11.10;99.90
43842;DHT22;29495;49.970;20.842;2023-04-01T17:04:47;11.00;99.90
43842;DHT22;29495;49.970;20.842;2023-04-01T22:08:36;9.70;99.90
